Flight Track Log - Related Links

Times and Time Zones

All times are in EDT time to prevent confusion due to time zone crossing. See the TSU191 flight status page for this flight to view local times or setup timezone preferences in your user account.

Time Position Orientation Groundspeed Altitude Reporting Facility
EDT Latitude Longitude Course Direction KTS MPH feet Rate Location/Type
Thu 07:43:34 PM 35.7264 -81.4475 340° North 258 297 2,800  Level Atlanta Center
Thu 07:44:34 PM 35.7750 -81.4742 336° Northwest 146 168 4,700 1,700 Climbing Atlanta Center
Thu 07:45:34 PM 35.8294 -81.4953 343° North 171 197 6,200 1,700 Climbing Atlanta Center
Thu 07:46:34 PM 35.8783 -81.5297 330° Northwest 198 228 8,100 1,850 Climbing Atlanta Center
Thu 07:47:00 PM 36.1034 -81.5167 North  Level FlightAware Approximate
Thu 07:47:34 PM 35.9311 -81.5614 334° Northwest 198 228 9,900  Level Atlanta Center
Thu 07:48:00 PM 36.1648 -81.5380 340° North  Level FlightAware Approximate
Thu 07:48:34 PM 35.9856 -81.5803 344° North 203 234 11,200  Level Atlanta Center
Thu 07:49:34 PM 36.0425 -81.6017 343° North 203 234 12,600 1,250 Climbing Atlanta Center
Thu 07:50:34 PM 36.1011 -81.6231 344° North 213 245 13,700 1,100 Climbing Atlanta Center
Thu 07:51:34 PM 36.1622 -81.6419 346° North 220 253 14,800 1,050 Climbing Atlanta Center
Thu 07:52:34 PM 36.2208 -81.6633 344° North 225 259 15,800 1,000 Climbing Atlanta Center
Thu 07:53:34 PM 36.2817 -81.6847 344° North 225 259 16,800 1,000 Climbing Atlanta Center
Thu 07:54:34 PM 36.3406 -81.7061 344° North 225 259 17,800 1,000 Climbing Atlanta Center
Thu 07:55:34 PM 36.4014 -81.7275 344° North 225 259 18,800 850 Climbing Atlanta Center
Thu 07:56:34 PM 36.4542 -81.7492 342° North 225 259 19,500 850 Climbing Atlanta Center
Thu 07:57:34 PM 36.5150 -81.7681 346° North 225 259 20,500 950 Climbing Atlanta Center
Thu 07:58:34 PM 36.5736 -81.7925 341° North 219 252 21,400 800 Climbing Atlanta Center
Thu 07:59:34 PM 36.6325 -81.8114 346° North 219 252 22,100 400 Climbing Atlanta Center
Thu 08:00:34 PM 36.6953 -81.8303 346° North 230 265 22,200 50 Climbing Atlanta Center
Thu 08:01:34 PM 36.7667 -81.8569 343° North 249 287 22,200 -32 Level Atlanta Center
Thu 08:03:39 PM 36.9242 -81.9178 343° North 275 316 22,100 -65 Descending Indianapolis Center
Thu 08:04:40 PM 36.9964 -81.9458 343° North 273 314 22,000  Descending Indianapolis Center
Thu 08:05:42 PM 37.0683 -81.9731 343° North 270 311 22,100 49 Climbing Indianapolis Center
Thu 08:06:43 PM 37.1414 -81.9981 345° North 272 313 22,100  Level Indianapolis Center
Thu 08:07:45 PM 37.2144 -82.0206 346° North 271 312 22,100  Level Indianapolis Center
Thu 08:08:46 PM 37.2986 -82.0494 345° North 270 311 22,100  Level Indianapolis Center
Thu 08:09:48 PM 37.3717 -82.0764 344° North 272 313 22,100 49 Level Indianapolis Center
Thu 08:10:49 PM 37.4436 -82.1042 343° North 271 312 22,200 49 Climbing Indianapolis Center
Thu 08:11:50 PM 37.5175 -82.1308 344° North 274 315 22,200  Level Indianapolis Center
Thu 08:12:52 PM 37.5906 -82.1586 343° North 274 315 22,200 -49 Level Indianapolis Center
Thu 08:13:53 PM 37.6642 -82.1814 346° North 273 314 22,100 -49 Descending Indianapolis Center
Thu 08:14:55 PM 37.7400 -82.1908 354° North 275 316 22,100 49 Level Indianapolis Center
Thu 08:15:56 PM 37.8178 -82.1969 356° North 279 321 22,200 49 Climbing Indianapolis Center
Thu 08:16:57 PM 37.9078 -82.2097 354° North 280 322 22,200  Level Indianapolis Center
Thu 08:17:59 PM 37.9850 -82.2200 354° North 279 321 22,200  Level Indianapolis Center
Thu 08:19:00 PM 38.0581 -82.2464 344° North 274 315 22,200  Level Indianapolis Center
Thu 08:20:01 PM 38.1308 -82.2728 344° North 274 315 22,200  Level Indianapolis Center
Thu 08:21:03 PM 38.2047 -82.2997 344° North 275 316 22,200  Level Indianapolis Center
Thu 08:22:04 PM 38.2775 -82.3292 342° North 274 315 22,200 -49 Level Indianapolis Center
Thu 08:23:06 PM 38.3506 -82.3575 343° North 273 314 22,100  Descending Indianapolis Center
Thu 08:24:07 PM 38.4256 -82.3828 345° North 275 316 22,200 49 Climbing Indianapolis Center
Thu 08:25:09 PM 38.5000 -82.4078 345° North 276 318 22,200  Level Indianapolis Center
Thu 08:26:10 PM 38.5728 -82.4411 340° North 277 319 22,200  Level Indianapolis Center
Thu 08:27:12 PM 38.6447 -82.4728 341° North 273 314 22,200  Level Indianapolis Center
Thu 08:28:13 PM 38.7342 -82.5069 343° North 277 319 22,200 -49 Level Indianapolis Center
Thu 08:29:15 PM 38.8086 -82.5350 344° North 277 319 22,100  Descending Indianapolis Center
Thu 08:30:16 PM 38.8839 -82.5625 344° North 280 322 22,200 49 Climbing Indianapolis Center
Thu 08:31:18 PM 38.9583 -82.5919 343° North 279 321 22,200  Level Indianapolis Center
Thu 08:32:19 PM 39.0339 -82.6200 344° North 282 325 22,200  Level Indianapolis Center
Thu 08:33:21 PM 39.1100 -82.6467 345° North 283 326 22,200  Level Indianapolis Center
Thu 08:34:22 PM 39.1864 -82.6767 343° North 282 325 22,200 -49 Level Indianapolis Center
Thu 08:35:24 PM 39.2633 -82.7036 345° North 284 327 22,100 -49 Descending Indianapolis Center
Thu 08:36:25 PM 39.3353 -82.7358 341° North 274 315 22,100 49 Level Indianapolis Center
Thu 08:37:27 PM 39.4086 -82.7683 341° North 275 316 22,200 49 Climbing Indianapolis Center
Thu 08:38:28 PM 39.4942 -82.8039 342° North 275 316 22,200 -49 Level Indianapolis Center
Thu 08:39:30 PM 39.5667 -82.8358 341° North 275 316 22,100 -49 Descending Indianapolis Center
Thu 08:40:31 PM 39.6403 -82.8672 342° North 276 318 22,100  Level Indianapolis Center
Thu 08:41:32 PM 39.7136 -82.9011 340° North 276 318 22,100  Level Indianapolis Center
Thu 08:42:34 PM 39.7878 -82.9308 343° North 278 320 22,100  Level Indianapolis Center
Thu 08:43:35 PM 39.8633 -82.9578 345° North 280 322 22,100 49 Level Indianapolis Center
Thu 08:44:37 PM 39.9375 -82.9903 341° North 279 321 22,200 49 Climbing Indianapolis Center
Thu 08:45:38 PM 40.0133 -83.0194 344° North 282 325 22,200 -49 Level Indianapolis Center
Thu 08:46:40 PM 40.0875 -83.0542 340° North 283 326 22,100 -49 Descending Indianapolis Center
Thu 08:47:41 PM 40.1614 -83.0883 341° North 281 323 22,100 -634 Level Indianapolis Center
Thu 08:48:43 PM 40.2511 -83.1322 340° North 291 335 20,800 -976 Descending Indianapolis Center
Thu 08:49:44 PM 40.3303 -83.1683 341° North 298 343 20,100 -344 Descending Indianapolis Center
Thu 08:50:45 PM 40.4083 -83.1981 344° North 291 335 20,100  Level Indianapolis Center
Thu 08:51:47 PM 40.4867 -83.2308 342° North 293 337 20,100  Level Indianapolis Center
Thu 08:52:48 PM 40.5647 -83.2633 342° North 291 335 20,100 -634 Level Indianapolis Center
Thu 08:53:50 PM 40.6439 -83.2953 343° North 296 341 18,800 -1,277 Descending Indianapolis Center
Thu 08:54:22 PM 40.6847 -83.3158 339° North 293 337 18,100 -1,370 Descending Cleveland Center
Thu 08:55:22 PM 40.7675 -83.3467 344° North 301 346 16,700 -1,400 Descending Cleveland Center
Thu 08:56:22 PM 40.8436 -83.3856 339° North 301 346 15,300 -1,500 Descending Cleveland Center
Thu 08:57:22 PM 40.9261 -83.4219 342° North 296 341 13,700 -1,550 Descending Cleveland Center
Thu 08:58:22 PM 41.0067 -83.4531 344° North 290 334 12,200 -1,650 Descending Cleveland Center
Thu 08:59:22 PM 41.0808 -83.4839 343° North 284 327 10,400 -1,100 Descending Cleveland Center
Thu 09:00:22 PM 41.1447 -83.5169 339° North 279 321 10,000 -1,100 Descending Cleveland Center
Thu 09:01:22 PM 41.2189 -83.5481 342° North 279 321 8,200 -1,800 Descending Cleveland Center
Thu 09:02:22 PM 41.2911 -83.5844 339° North 279 321 6,400 -1,750 Descending Cleveland Center
Thu 09:03:22 PM 41.3653 -83.6100 346° North 273 314 4,700 -1,700 Descending Cleveland Center
Thu 09:05:00 PM 41.4706 -83.6539 323° Northwest  Level FlightAware Approximate
Thu 09:12:00 PM 41.5833 -83.8000 323° Northwest  Level FlightAware Approximate
Thu 09:13:00 PM 41.5868 -83.8078 323° Northwest  Level Estimated
Thu 09:14:00 PM 41.5833 -83.8000 323° Northwest  Level FlightAware Approximate
Thu 09:15:00 PM 41.5868 -83.8078 323° Northwest  Level Estimated
Thu 09:16:00 PM 41.5833 -83.8000 323° Northwest  Level FlightAware Approximate

Login

Don't have an account? Register now (free) for customized features, flight alerts, and more!